FLIGHT INFORMATION
United Airlines

UAL519

At Arrival Gate

KIAD
 KIAH
DATE: 2020-02-09
GATE: D15
GATE DEPARTURE: 01:44
TAKEOFF: 01:55
DATE: 2020-02-09
GATE:  -
LANDING: 04:45
GATE ARRIVAL: 04:50
FLIGHT DATA
Crew: STEVEN PERRY
Speed: 482 kts Altitude: 34000 ft
Stage Length: 1033 nm
Route: 
Block Time: 3.1 Flight Time: 2.8
Fuel Used: 19301 LB
TRACK DATA
50000 FT1000 KTAltitudeSpeed
AIRCRAFT INFORMATION
Aircraft Type: B739ERBW
Registration: N37419
SELCAL:  MSN/LN: 31666 / 2553
Operator: UNITED AIRLINES
Flights: 10 Block Time: 32 Flight Time: 28.8
Fuel Used: 192577 LB
  • DEPARTURE INFORMATION
    Date: 2020-02-09
    Airport: KIAD
    Gate: D15
    Gate Departure: 01:44
    Takeoff: 01:55
    ARRIVAL INFORMATION
    Date: 2020-02-09
    Airport: KIAH
    Gate:  -
    Landing: 04:45
    Gate Arrival: 04:50
  • FLIGHT DATA
    Crew: STEVEN PERRY
    Speed: 482 kts Altitude: 34000 ft
    Stage Length: 558 nm
    Route: 
    Block Time: 3.1 Flight Time: 2.8
    Fuel Used: 19301 LB
  • AIRCRAFT INFORMATION
    Aircraft Type: B739ERBW
    Registration: N37419
    SELCAL:  MSN/LN: 31666 / 2553
    Operator: United Airlines
    Flights: 10 Block Time: 32 Flight Time: 28.8
    Fuel Used: 192577 LB

DATALINK LOG | Newest first | Current as of: 2020-05-31 19:00:28
LABEL ID SEQUENCE CONTENT Dn/Up
QD513604:50 10.7▼ Dn
QC463504:45▼ Dn
QB564901:55▼ Dn
QA441401:44 30.2▼ Dn
A32652CLEARED TO KIAH VIA CLTCH2 MAULS Q40 AEX ZEEKK2. SQUAWK 2376.▲ Up
A32600CLEARED TO KIAH VIA CLTCH2 MAULS Q40 AEX ZEEKK2. SQUAWK 6517.▲ Up
2U2603KIAH 090053Z 15009KT 10SM FEW035 SCT047 18/13 A3013 RMK AO2 SLP203 T01780133▲ Up
2U2603KIAD 090052Z 14005KT 10SM FEW250 02/M07 A3027 RMK AO2 SLP251 T00171067▲ Up
2S2603KIAD KIAH▼ Dn
Q02450[LINK ACK]▲ Up
Q02523[LINK TEST]▼ Dn


AIRCRAFT HISTORY
FLIGHT DATE FLIGHT NUMBER ORIGIN DESTINATION ROUTE BLOCK TIME FLIGHT TIME FUEL USED (LB) PILOT
2020-04-06UAL2396KSFO KIAH 3.63.220380Dan Downs
2020-02-22UAL1973KIAH KSFO 4.13.823607Pete Locascio
2020-02-09UAL519KIAD KIAH 3.12.819301Steven Perry
2020-01-20UAL172KBWI KIAD 0.40.22135Michael Roth
2020-01-02UAL172KMEM KBWI 2.11.811499Jhan Jensen
2019-11-23UAL519KIAH KMEM 1.317578Steven Perry
2019-11-16UAL1116KSFO KIAH 3.53.221910Matthew Gales
2019-11-15UAL650PHNL KSFO 5.24.730935Kyle Rodgers
2019-11-13UAL1670KSFO PHNL 5.95.233864Kyle Rodgers
2019-11-12UAL9812KMCI KSFO 3.83.321369Kyle Rodgers